Time;durP1;ratioP1;P1;durP2;ratioP2;P2;SDS_P1;SDS_P2;PMS_P1;PMS_P2;Temp;Humidity;BMP_temperature;BMP_pressure;BME280_temperature;BME280_humidity;BME280_pressure;Samples;Min_cycle;Max_cycle;Signal;HPM_P1;HPM_P2
2021/07/07 00:00:42;;;;;;;11.40;10.30;;;;;;;19.08;75.48;100352.78;92724;1217;68208;-68
2021/07/07 00:02:59;;;;;;;11.20;10.20;;;;;;;19.09;75.60;100353.63;92718;1217;87696;-68
2021/07/07 00:05:09;;;;;;;11.30;10.10;;;;;;;19.09;75.53;100353.63;92715;1217;75405;-69
2021/07/07 00:07:17;;;;;;;12.30;10.50;;;;;;;19.07;75.66;100353.02;92711;1224;80189;-69
2021/07/07 00:09:24;;;;;;;11.00;9.30;;;;;;;19.08;75.72;100350.05;92767;1209;67495;-68
2021/07/07 00:11:32;;;;;;;9.70;8.80;;;;;;;19.07;75.66;100350.28;92768;1217;69061;-67
2021/07/07 00:13:40;;;;;;;10.90;9.80;;;;;;;19.09;75.69;100348.95;92751;1217;87019;-66
2021/07/07 00:15:50;;;;;;;11.10;10.00;;;;;;;19.07;75.79;100353.85;92771;1224;75175;-70
2021/07/07 00:18:00;;;;;;;10.20;9.40;;;;;;;19.03;75.75;100349.95;92726;1217;82479;-70
2021/07/07 00:20:16;;;;;;;11.50;10.40;;;;;;;18.98;75.91;100349.84;92757;1223;68753;-68
2021/07/07 00:22:24;;;;;;;10.10;9.10;;;;;;;18.96;75.78;100353.91;92669;1217;70368;-67
2021/07/07 00:24:32;;;;;;;12.20;10.70;;;;;;;19.02;75.81;100356.50;92722;1217;88026;-67
2021/07/07 00:26:42;;;;;;;12.00;10.90;;;;;;;19.06;75.78;100359.59;92729;1217;73944;-69
2021/07/07 00:28:50;;;;;;;11.70;10.60;;;;;;;19.08;75.82;100357.42;92711;1217;81652;-68
2021/07/07 00:30:59;;;;;;;13.50;12.20;;;;;;;19.07;75.76;100359.33;92739;1217;66343;-70
2021/07/07 00:33:07;;;;;;;16.20;13.10;;;;;;;19.13;75.77;100357.52;92748;1219;68735;-69
2021/07/07 00:35:16;;;;;;;13.60;12.00;;;;;;;19.20;75.69;100355.47;92769;1217;88037;-71
2021/07/07 00:37:24;;;;;;;13.30;12.10;;;;;;;19.26;75.64;100359.94;92761;1217;75031;-70
2021/07/07 00:39:32;;;;;;;13.60;12.40;;;;;;;19.27;75.60;100359.70;92711;1224;79949;-68
2021/07/07 00:41:40;;;;;;;13.30;12.00;;;;;;;19.28;75.62;100350.39;92780;1217;65578;-69
2021/07/07 00:43:47;;;;;;;15.10;13.70;;;;;;;19.28;75.55;100355.06;92734;1217;70197;-68
2021/07/07 00:45:55;;;;;;;13.80;12.50;;;;;;;19.30;75.44;100352.91;92787;1217;87403;-68
2021/07/07 00:48:03;;;;;;;12.80;11.50;;;;;;;19.29;75.32;100345.75;92724;1217;75430;-68
2021/07/07 00:50:13;;;;;;;13.00;11.50;;;;;;;19.25;75.42;100350.08;92694;1217;81538;-73
2021/07/07 00:52:23;;;;;;;15.00;12.00;;;;;;;19.24;75.43;100349.23;92758;1217;66658;-69
2021/07/07 00:54:34;;;;;;;13.90;12.50;;;;;;;19.28;75.47;100350.39;92727;1217;68177;-70
2021/07/07 00:56:46;;;;;;;13.80;12.50;;;;;;;19.29;75.34;100349.33;92745;1217;87236;-70
2021/07/07 00:58:57;;;;;;;13.40;12.20;;;;;;;19.29;75.42;100345.75;92737;1222;74928;-70
2021/07/07 01:01:07;;;;;;;14.00;12.70;;;;;;;19.28;75.34;100350.39;92753;1223;82300;-68
2021/07/07 01:03:15;;;;;;;13.50;11.90;;;;;;;19.28;75.50;100352.33;92725;1223;67485;-67
2021/07/07 01:05:23;;;;;;;13.60;12.20;;;;;;;19.28;75.34;100353.13;92674;1217;69469;-70
2021/07/07 01:07:30;;;;;;;13.90;12.50;;;;;;;19.27;75.39;100351.48;92716;1217;87566;-69
2021/07/07 01:09:41;;;;;;;14.90;13.50;;;;;;;19.29;75.40;100352.06;92743;1217;74757;-68
2021/07/07 01:11:49;;;;;;;14.10;12.60;;;;;;;19.28;75.33;100349.59;92792;1217;80525;-70
2021/07/07 01:13:57;;;;;;;14.10;12.60;;;;;;;19.24;75.29;100343.77;92706;1217;67803;-73
2021/07/07 01:16:08;;;;;;;13.30;12.00;;;;;;;19.24;75.35;100340.19;92690;1216;69079;-71
2021/07/07 01:18:16;;;;;;;14.60;13.10;;;;;;;19.33;75.33;100350.51;92680;1209;88824;-71
2021/07/07 01:20:26;;;;;;;14.50;13.10;;;;;;;19.38;75.21;100356.10;92756;1217;74862;-68
2021/07/07 01:22:34;;;;;;;13.90;12.40;;;;;;;19.39;75.35;100348.72;92746;1215;79817;-69
2021/07/07 01:24:44;;;;;;;13.50;12.10;;;;;;;19.42;75.31;100349.03;92685;1223;67644;-68
2021/07/07 01:26:52;;;;;;;13.70;12.50;;;;;;;19.39;75.33;100346.78;92742;1217;69926;-66
2021/07/07 01:29:00;;;;;;;12.50;11.30;;;;;;;19.34;75.41;100348.57;92633;1224;87494;-68
2021/07/07 01:31:08;;;;;;;14.10;12.80;;;;;;;19.26;75.70;100335.28;92742;1217;74817;-72
2021/07/07 01:33:15;;;;;;;16.80;12.90;;;;;;;19.22;75.53;100345.92;92740;1217;80658;-72
2021/07/07 01:35:24;;;;;;;14.90;13.50;;;;;;;19.24;75.51;100338.28;92745;1217;67078;-71
2021/07/07 01:37:32;;;;;;;13.90;12.50;;;;;;;19.19;75.48;100337.36;92744;1217;69047;-69
2021/07/07 01:39:43;;;;;;;13.10;11.80;;;;;;;19.17;75.64;100337.59;92754;1217;87019;-68
2021/07/07 01:41:51;;;;;;;13.60;11.70;;;;;;;19.16;75.44;100344.17;92720;1217;74293;-68
2021/07/07 01:44:01;;;;;;;12.70;11.60;;;;;;;19.14;75.58;100343.59;92751;1217;80130;-72
2021/07/07 01:46:09;;;;;;;14.80;13.30;;;;;;;19.14;75.67;100351.81;92754;1217;67259;-66
2021/07/07 01:48:16;;;;;;;14.60;13.10;;;;;;;19.07;75.72;100347.54;92653;1217;69042;-69
2021/07/07 01:50:27;;;;;;;14.30;12.90;;;;;;;19.07;75.56;100353.85;92738;1212;87235;-67
2021/07/07 01:52:38;;;;;;;13.60;12.30;;;;;;;19.04;75.74;100342.55;92724;1217;75686;-68
2021/07/07 01:54:50;;;;;;;13.60;12.20;;;;;;;18.97;75.83;100339.98;92691;1217;82274;-69
2021/07/07 01:57:01;;;;;;;14.20;12.80;;;;;;;18.97;75.77;100345.45;92751;1217;66825;-71
2021/07/07 01:59:09;;;;;;;14.50;13.20;;;;;;;18.98;75.93;100344.36;92742;1217;67599;-72
2021/07/07 02:01:17;;;;;;;13.70;12.30;;;;;;;18.94;75.78;100351.42;92728;1217;87007;-71
2021/07/07 02:03:27;;;;;;;14.60;13.30;;;;;;;18.90;76.13;100354.91;92747;1216;74102;-70
2021/07/07 02:05:38;;;;;;;14.10;12.70;;;;;;;18.86;76.06;100349.08;92725;1209;81420;-67
2021/07/07 02:07:49;;;;;;;14.30;12.30;;;;;;;18.83;76.09;100355.04;92713;1217;67385;-69
2021/07/07 02:09:57;;;;;;;14.20;12.80;;;;;;;18.83;76.31;100352.30;92770;1217;68202;-72
2021/07/07 02:12:05;;;;;;;13.10;11.90;;;;;;;18.79;76.17;100362.90;92731;1223;87779;-70
2021/07/07 02:14:17;;;;;;;13.80;12.70;;;;;;;18.73;76.39;100354.84;92766;1217;74949;-70
2021/07/07 02:16:24;;;;;;;13.20;12.10;;;;;;;18.73;76.49;100358.39;92777;1217;81944;-68
2021/07/07 02:18:32;;;;;;;15.10;13.70;;;;;;;18.74;76.38;100353.75;92789;1223;68641;-66
2021/07/07 02:20:46;;;;;;;15.50;14.00;;;;;;;18.76;76.59;100351.63;92691;1209;68148;-66
2021/07/07 02:22:57;;;;;;;16.00;14.30;;;;;;;18.79;76.46;100351.95;92731;1217;87581;-68
2021/07/07 02:25:08;;;;;;;16.00;14.40;;;;;;;18.80;76.63;100355.52;92788;1217;75426;-67
2021/07/07 02:27:16;;;;;;;17.10;15.60;;;;;;;18.85;76.51;100361.09;92774;1211;81018;-68
2021/07/07 02:29:24;;;;;;;18.50;16.70;;;;;;;18.93;76.65;100368.08;92732;1217;69721;-67
2021/07/07 02:31:32;;;;;;;19.90;18.00;;;;;;;19.03;76.57;100358.17;92752;1217;68381;-66
2021/07/07 02:33:39;;;;;;;22.50;18.00;;;;;;;19.15;76.40;100360.83;92763;1211;86675;-70
2021/07/07 02:35:48;;;;;;;19.90;17.90;;;;;;;19.22;76.43;100359.63;92733;1217;75023;-71
2021/07/07 02:37:57;;;;;;;21.10;19.20;;;;;;;19.31;76.33;100360.86;92716;1217;80968;-70
2021/07/07 02:40:11;;;;;;;21.20;19.00;;;;;;;19.38;76.27;100361.58;92751;1217;66045;-66
2021/07/07 02:42:19;;;;;;;20.80;18.80;;;;;;;19.45;75.94;100368.81;92784;1217;69690;-69
2021/07/07 02:44:30;;;;;;;20.10;18.20;;;;;;;19.50;75.85;100371.64;92649;1216;87804;-67
2021/07/07 02:46:41;;;;;;;20.70;18.80;;;;;;;19.57;75.71;100375.87;92768;1217;75311;-74
2021/07/07 02:48:49;;;;;;;20.40;18.50;;;;;;;19.62;75.69;100364.98;92700;1222;81921;-73
2021/07/07 02:50:57;;;;;;;21.80;19.60;;;;;;;19.68;75.69;100368.64;92735;1217;66430;-69
2021/07/07 02:53:06;;;;;;;18.80;17.00;;;;;;;19.71;75.45;100379.11;92767;1217;70106;-73
2021/07/07 02:55:17;;;;;;;19.40;17.20;;;;;;;19.72;75.43;100373.36;92746;1217;86974;-68
2021/07/07 02:57:25;;;;;;;18.80;17.10;;;;;;;19.74;75.25;100373.97;92746;1217;73886;-70
2021/07/07 02:59:33;;;;;;;20.50;18.60;;;;;;;19.76;75.08;100373.70;92727;1217;81492;-69
2021/07/07 03:01:40;;;;;;;19.20;17.30;;;;;;;19.77;75.32;100376.21;92715;1216;65264;-69
2021/07/07 03:03:51;;;;;;;18.40;16.70;;;;;;;19.79;75.29;100378.69;92736;1223;67871;-70
2021/07/07 03:06:01;;;;;;;17.00;15.40;;;;;;;19.82;75.04;100378.19;92763;1215;87266;-69
2021/07/07 03:08:13;;;;;;;18.20;16.70;;;;;;;19.84;75.17;100389.73;92753;1217;74905;-74
2021/07/07 03:10:24;;;;;;;16.50;14.90;;;;;;;19.79;75.02;100389.66;92741;1217;81451;-69
2021/07/07 03:12:35;;;;;;;17.30;14.90;;;;;;;19.81;75.14;100391.06;92802;1210;65311;-71
2021/07/07 03:14:42;;;;;;;17.30;15.50;;;;;;;19.81;75.04;100392.97;92741;1222;68266;-67
2021/07/07 03:16:50;;;;;;;15.60;14.10;;;;;;;19.78;75.12;100393.46;92737;1222;87538;-67
2021/07/07 03:18:58;;;;;;;14.40;13.10;;;;;;;19.78;75.35;100388.81;92734;1217;74706;-69
2021/07/07 03:21:05;;;;;;;14.50;13.00;;;;;;;19.80;75.39;100391.33;92730;1217;80421;-65
2021/07/07 03:23:18;;;;;;;14.30;13.00;;;;;;;19.83;75.20;100396.31;92747;1217;67785;-66
2021/07/07 03:25:27;;;;;;;14.00;12.80;;;;;;;19.87;75.50;100397.45;92775;1224;68038;-68
2021/07/07 03:27:37;;;;;;;15.80;14.20;;;;;;;19.87;75.48;100390.06;92721;1223;87945;-66
2021/07/07 03:29:45;;;;;;;14.40;13.20;;;;;;;19.91;75.67;100395.89;92763;1222;75635;-68
2021/07/07 03:31:55;;;;;;;14.50;13.10;;;;;;;20.16;75.65;100392.70;92744;1217;81995;-70
2021/07/07 03:34:06;;;;;;;15.00;13.60;;;;;;;20.41;75.22;100393.06;92737;1222;66394;-68
2021/07/07 03:36:14;;;;;;;14.20;13.10;;;;;;;20.76;74.92;100390.81;92730;1210;68045;-69
2021/07/07 03:38:24;;;;;;;14.60;13.20;;;;;;;21.21;74.57;100401.50;92746;1217;86921;-69
2021/07/07 03:40:34;;;;;;;14.70;13.30;;;;;;;21.87;74.40;100396.63;92738;1220;75597;-67
2021/07/07 03:42:47;;;;;;;14.40;13.00;;;;;;;22.53;73.58;100395.96;92721;1217;81103;-66
2021/07/07 03:44:54;;;;;;;14.00;12.70;;;;;;;23.32;72.79;100396.53;92695;1217;67049;-69
2021/07/07 03:47:03;;;;;;;13.50;12.40;;;;;;;23.91;71.98;100391.38;92740;1217;68118;-70
2021/07/07 03:49:11;;;;;;;14.00;12.30;;;;;;;24.49;71.14;100391.84;92749;1217;87653;-69
2021/07/07 03:51:19;;;;;;;13.60;12.40;;;;;;;25.02;70.43;100391.11;92740;1217;73977;-67
2021/07/07 03:53:27;;;;;;;13.40;12.10;;;;;;;25.50;69.43;100402.44;92708;1216;81710;-68
2021/07/07 03:55:35;;;;;;;14.50;13.30;;;;;;;25.99;68.80;100394.00;92724;1217;65368;-69
2021/07/07 03:57:44;;;;;;;13.70;12.50;;;;;;;26.48;67.61;100391.86;92739;1222;68732;-69
2021/07/07 03:59:54;;;;;;;13.60;12.40;;;;;;;26.91;66.53;100395.54;92765;1224;87068;-67
2021/07/07 04:02:02;;;;;;;12.80;11.60;;;;;;;27.41;65.51;100403.16;92684;1217;75493;-68
2021/07/07 04:04:09;;;;;;;13.20;12.10;;;;;;;27.88;64.61;100393.80;92722;1215;82413;-66
2021/07/07 04:06:17;;;;;;;12.90;11.70;;;;;;;28.25;63.22;100398.45;92754;1224;65769;-69
2021/07/07 04:08:24;;;;;;;12.20;11.20;;;;;;;28.68;62.33;100391.52;92735;1224;68811;-71
2021/07/07 04:10:36;;;;;;;14.50;13.00;;;;;;;29.07;60.54;100395.70;92775;1222;87614;-69
2021/07/07 04:12:44;;;;;;;12.80;11.70;;;;;;;29.44;59.93;100394.61;92761;1215;73326;-69
2021/07/07 04:14:52;;;;;;;12.20;10.80;;;;;;;29.75;58.80;100398.29;92733;1224;81646;-70
2021/07/07 04:17:03;;;;;;;12.40;11.40;;;;;;;29.97;57.73;100400.30;92711;1223;68014;-70
2021/07/07 04:19:10;;;;;;;12.60;11.40;;;;;;;30.22;57.09;100399.61;92747;1223;69449;-70
2021/07/07 04:21:19;;;;;;;13.00;11.80;;;;;;;30.53;56.26;100400.46;92746;1217;87298;-66
2021/07/07 04:23:26;;;;;;;13.30;11.90;;;;;;;30.89;55.54;100401.09;92726;1223;75178;-66
2021/07/07 04:25:34;;;;;;;12.70;11.40;;;;;;;31.18;54.29;100408.08;92749;1217;81758;-67
2021/07/07 04:27:43;;;;;;;11.80;10.70;;;;;;;31.57;53.19;100398.75;92730;1217;67318;-67
2021/07/07 04:29:50;;;;;;;11.60;10.60;;;;;;;31.79;53.28;100391.02;92702;1217;68715;-66
2021/07/07 04:31:58;;;;;;;11.50;10.40;;;;;;;32.19;52.03;100388.85;92738;1217;87134;-66
2021/07/07 04:34:09;;;;;;;11.60;10.60;;;;;;;32.48;51.14;100397.30;92746;1217;75174;-68
2021/07/07 04:36:16;;;;;;;12.10;11.10;;;;;;;32.70;50.33;100387.84;92751;1211;80930;-68
2021/07/07 04:38:24;;;;;;;11.90;10.90;;;;;;;32.91;49.98;100388.70;92730;1217;66098;-69
2021/07/07 04:40:35;;;;;;;11.20;10.20;;;;;;;33.19;49.75;100392.67;92701;1217;68065;-65
2021/07/07 04:42:43;;;;;;;11.10;10.20;;;;;;;33.53;48.51;100393.58;92733;1223;86341;-66
2021/07/07 04:44:53;;;;;;;11.90;10.90;;;;;;;33.62;47.87;100389.55;92758;1217;74098;-68
2021/07/07 04:47:01;;;;;;;11.40;10.50;;;;;;;33.86;47.10;100394.45;92770;1217;80822;-67
2021/07/07 04:49:09;;;;;;;11.10;10.30;;;;;;;33.93;46.89;100399.48;92718;1217;67130;-66
2021/07/07 04:51:17;;;;;;;11.30;10.30;;;;;;;34.23;46.73;100401.83;92726;1223;69050;-66
2021/07/07 04:53:25;;;;;;;10.90;9.90;;;;;;;34.69;46.00;100408.26;92728;1217;87985;-67
2021/07/07 04:55:35;;;;;;;11.60;9.50;;;;;;;34.88;45.16;100406.51;92739;1216;73953;-68
2021/07/07 04:57:42;;;;;;;11.50;10.50;;;;;;;35.19;44.00;100411.52;92764;1217;80871;-69
2021/07/07 04:59:50;;;;;;;10.20;9.40;;;;;;;35.43;42.92;100414.30;92698;1217;66939;-67
2021/07/07 05:01:58;;;;;;;10.70;9.90;;;;;;;35.85;41.71;100406.31;92753;1217;68904;-69
2021/07/07 05:04:06;;;;;;;10.60;9.70;;;;;;;36.08;40.73;100415.03;92730;1223;87417;-67
2021/07/07 05:06:13;;;;;;;10.10;9.20;;;;;;;36.21;40.86;100413.78;92736;1215;74607;-68
2021/07/07 05:08:24;;;;;;;10.80;9.80;;;;;;;36.36;39.94;100415.81;92740;1217;81728;-67
2021/07/07 05:10:32;;;;;;;10.50;9.40;;;;;;;36.51;39.65;100414.20;92734;1217;65259;-68
2021/07/07 05:12:40;;;;;;;9.30;8.50;;;;;;;36.61;38.79;100411.69;92743;1221;69478;-67
2021/07/07 05:14:48;;;;;;;11.00;9.90;;;;;;;36.81;38.58;100415.38;92718;1217;87273;-68
2021/07/07 05:16:56;;;;;;;9.70;9.00;;;;;;;37.25;38.21;100410.42;92724;1217;75210;-67
2021/07/07 05:19:03;;;;;;;10.50;9.50;;;;;;;37.38;37.53;100411.13;92723;1217;80599;-65
2021/07/07 05:21:12;;;;;;;9.80;9.00;;;;;;;37.53;37.65;100408.27;92761;1210;67037;-66
2021/07/07 05:23:19;;;;;;;10.20;9.30;;;;;;;37.42;36.80;100406.40;92736;1224;68386;-67
2021/07/07 05:25:27;;;;;;;10.20;9.20;;;;;;;37.67;35.96;100402.94;92728;1222;87752;-66
2021/07/07 05:27:38;;;;;;;10.00;9.20;;;;;;;38.01;35.35;100411.71;92754;1217;74833;-64
2021/07/07 05:29:46;;;;;;;10.20;9.20;;;;;;;38.74;35.34;100408.63;92680;1217;81530;-67
2021/07/07 05:31:54;;;;;;;9.70;9.00;;;;;;;38.69;34.22;100409.77;92731;1217;67160;-68
2021/07/07 05:34:01;;;;;;;10.60;9.60;;;;;;;38.67;34.63;100411.34;92723;1221;68913;-65
2021/07/07 05:36:10;;;;;;;9.50;8.60;;;;;;;39.13;33.40;100417.76;92747;1210;87018;-67
2021/07/07 05:38:18;;;;;;;9.60;8.70;;;;;;;39.19;33.65;100428.37;92765;1215;75386;-68
2021/07/07 05:40:26;;;;;;;9.70;8.70;;;;;;;39.46;32.39;100430.00;92750;1216;82136;-67
2021/07/07 05:42:34;;;;;;;9.40;8.60;;;;;;;39.65;32.20;100425.42;92710;1215;66952;-68
2021/07/07 05:44:41;;;;;;;9.60;8.70;;;;;;;40.06;31.63;100430.00;92743;1224;69581;-68
2021/07/07 05:46:52;;;;;;;9.50;8.60;;;;;;;40.71;30.66;100421.80;92781;1217;87521;-68
2021/07/07 05:49:00;;;;;;;9.20;8.30;;;;;;;40.82;30.52;100425.51;92705;1217;75504;-69
2021/07/07 05:51:07;;;;;;;9.10;8.30;;;;;;;40.64;30.63;100421.72;92744;1222;81977;-65
2021/07/07 05:53:15;;;;;;;9.40;8.50;;;;;;;40.47;30.40;100430.83;92742;1217;65663;-65
2021/07/07 05:55:28;;;;;;;9.70;8.80;;;;;;;40.16;30.51;100432.16;92745;1223;68814;-66
2021/07/07 05:57:39;;;;;;;8.70;8.00;;;;;;;40.06;30.68;100425.16;92739;1217;87861;-66
2021/07/07 05:59:46;;;;;;;8.90;8.20;;;;;;;40.01;30.74;100436.80;92750;1224;74838;-67
2021/07/07 06:01:56;;;;;;;8.80;8.00;;;;;;;39.33;30.91;100430.63;92747;1224;82636;-65
2021/07/07 06:04:07;;;;;;;9.80;8.80;;;;;;;39.12;31.30;100439.55;92733;1217;66419;-61
2021/07/07 06:06:15;;;;;;;9.20;8.50;;;;;;;39.66;31.01;100447.69;92774;1217;67625;-68
2021/07/07 06:08:22;;;;;;;8.90;8.10;;;;;;;40.12;30.19;100441.80;92728;1217;88340;-69
2021/07/07 06:10:30;;;;;;;9.20;8.30;;;;;;;40.52;29.87;100439.03;92746;1209;74786;-62
2021/07/07 06:12:38;;;;;;;9.40;8.60;;;;;;;40.70;29.90;100437.16;92721;1217;82027;-61
2021/07/07 06:14:46;;;;;;;9.80;8.80;;;;;;;40.79;29.28;100431.98;92733;1216;65463;-60
2021/07/07 06:16:54;;;;;;;9.00;8.20;;;;;;;41.21;28.07;100440.83;92737;1223;68281;-60
2021/07/07 06:19:02;;;;;;;10.80;8.90;;;;;;;41.04;28.23;100441.50;92747;1217;87802;-61
2021/07/07 06:21:13;;;;;;;9.20;8.40;;;;;;;40.29;29.59;100441.18;92770;1217;75743;-68
2021/07/07 06:23:21;;;;;;;9.10;8.40;;;;;;;39.99;29.77;100444.05;92718;1217;80934;-71
2021/07/07 06:25:29;;;;;;;8.20;7.50;;;;;;;39.57;29.67;100446.30;92725;1217;65566;-60
2021/07/07 06:27:41;;;;;;;8.60;7.90;;;;;;;38.58;30.78;100439.02;92746;1217;69825;-62
2021/07/07 06:29:48;;;;;;;8.70;7.80;;;;;;;37.91;31.10;100446.97;92765;1224;86507;-67
2021/07/07 06:31:56;;;;;;;8.20;7.60;;;;;;;37.36;31.98;100442.48;92744;1222;75718;-67
2021/07/07 06:34:11;;;;;;;8.80;7.90;;;;;;;37.88;32.21;100441.28;92737;1210;81837;-66
2021/07/07 06:36:19;;;;;;;8.10;7.40;;;;;;;38.52;32.05;100438.52;92743;1217;65821;-61
2021/07/07 06:38:35;;;;;;;8.90;8.10;;;;;;;39.52;30.68;100447.45;92732;1223;69847;-60
2021/07/07 06:40:49;;;;;;;10.30;9.40;;;;;;;40.24;29.38;100444.37;92716;1217;87229;-68
2021/07/07 06:43:01;;;;;;;9.20;8.30;;;;;;;40.89;28.45;100436.92;92679;1217;78302;-67
2021/07/07 06:45:13;;;;;;;9.20;8.50;;;;;;;41.36;28.77;100436.09;92746;1217;82356;-68
2021/07/07 06:47:20;;;;;;;9.80;8.70;;;;;;;41.24;28.37;100436.38;92744;1222;68172;-67
2021/07/07 06:49:28;;;;;;;10.00;9.10;;;;;;;41.73;27.34;100442.39;92757;1217;68151;-68
2021/07/07 06:51:35;;;;;;;9.10;8.50;;;;;;;41.71;28.32;100435.45;92713;1216;87296;-68
2021/07/07 06:53:46;;;;;;;9.60;8.60;;;;;;;42.21;27.64;100439.34;92725;1217;76134;-69
2021/07/07 06:55:57;;;;;;;9.40;8.60;;;;;;;42.50;26.52;100429.65;92728;1223;81280;-60
2021/07/07 06:58:10;;;;;;;9.40;8.20;;;;;;;42.80;26.46;100441.47;92766;1217;65482;-61
2021/07/07 07:00:23;;;;;;;9.30;8.40;;;;;;;42.81;26.35;100434.58;92774;1217;67851;-69
2021/07/07 07:02:31;;;;;;;9.60;8.70;;;;;;;42.78;26.08;100432.55;92759;1217;86332;-69
2021/07/07 07:04:45;;;;;;;9.30;8.20;;;;;;;43.06;26.10;100434.59;92749;1217;75389;-65
2021/07/07 07:06:57;;;;;;;9.30;8.40;;;;;;;43.15;25.24;100437.84;92728;1217;81705;-68
2021/07/07 07:09:08;;;;;;;9.00;8.20;;;;;;;43.11;25.46;100445.55;92725;1217;66979;-68
2021/07/07 07:11:19;;;;;;;9.30;8.50;;;;;;;42.97;25.67;100444.73;92761;1217;70273;-67
2021/07/07 07:13:26;;;;;;;9.60;8.70;;;;;;;43.06;25.16;100450.84;92717;1217;88121;-68
2021/07/07 07:15:34;;;;;;;9.20;8.40;;;;;;;43.14;25.07;100447.58;92712;1217;75602;-63
2021/07/07 07:17:43;;;;;;;8.20;7.50;;;;;;;43.21;24.80;100447.55;92720;1217;82933;-59
2021/07/07 07:19:55;;;;;;;8.80;8.00;;;;;;;43.13;24.96;100450.84;92727;1217;65881;-66
2021/07/07 07:22:02;;;;;;;8.00;7.30;;;;;;;43.02;24.76;100456.52;92762;1210;68805;-67
2021/07/07 07:24:11;;;;;;;8.70;7.90;;;;;;;43.17;24.67;100445.95;92707;1217;88680;-68
2021/07/07 07:26:22;;;;;;;8.10;7.50;;;;;;;43.12;24.73;100438.65;92767;1217;75203;-67
2021/07/07 07:28:30;;;;;;;8.60;7.80;;;;;;;43.20;24.65;100450.82;92741;1217;82268;-67
2021/07/07 07:30:41;;;;;;;8.90;8.10;;;;;;;43.10;24.47;100446.78;92737;1217;65791;-67
2021/07/07 07:32:52;;;;;;;8.00;7.30;;;;;;;42.83;24.92;100454.05;92654;1216;67761;-67
2021/07/07 07:35:00;;;;;;;8.60;7.90;;;;;;;43.02;24.29;100445.14;92623;1216;88101;-61
2021/07/07 07:37:13;;;;;;;9.30;7.00;;;;;;;43.20;24.33;100445.95;92640;1216;74280;-61
2021/07/07 07:39:23;;;;;;;8.10;7.50;;;;;;;43.02;24.48;100447.98;92654;1214;82480;-62
2021/07/07 07:41:34;;;;;;;8.30;7.60;;;;;;;43.08;24.30;100446.36;92612;1216;68199;-59
2021/07/07 07:43:43;;;;;;;8.40;7.70;;;;;;;42.87;23.93;100450.02;92731;1217;69575;-62
2021/07/07 07:45:55;;;;;;;8.00;7.30;;;;;;;42.74;24.84;100453.67;92729;1217;87835;-61
2021/07/07 07:48:06;;;;;;;8.50;7.80;;;;;;;43.02;24.39;100447.20;92678;1217;75580;-61
2021/07/07 07:50:16;;;;;;;;;;;;;;;42.96;24.55;100443.95;92756;1222;81469;-62
2021/07/07 07:52:24;;;;;;;8.00;7.40;;;;;;;43.18;24.14;100441.89;92724;1217;65993;-61
2021/07/07 07:54:32;;;;;;;9.50;8.70;;;;;;;43.19;23.87;100454.88;92749;1217;68472;-62
2021/07/07 07:56:40;;;;;;;8.40;7.80;;;;;;;42.76;24.28;100454.06;92733;1217;87846;-62
2021/07/07 07:58:48;;;;;;;7.90;7.30;;;;;;;43.11;24.05;100451.23;92741;1217;74443;-62
2021/07/07 08:00:56;;;;;;;7.80;7.20;;;;;;;43.45;23.09;100441.05;92731;1217;81214;-68
2021/07/07 08:03:03;;;;;;;7.70;7.00;;;;;;;43.33;23.57;100449.16;92736;1217;66867;-68
2021/07/07 08:05:14;;;;;;;8.00;7.30;;;;;;;43.50;23.64;100442.66;92746;1217;68309;-61
2021/07/07 08:07:21;;;;;;;7.80;7.10;;;;;;;43.25;24.18;100445.53;92743;1217;87509;-62
2021/07/07 08:09:29;;;;;;;8.40;7.70;;;;;;;43.40;23.37;100443.50;92741;1216;76053;-62
2021/07/07 08:11:36;;;;;;;7.10;6.60;;;;;;;43.58;22.33;100449.95;92709;1217;81724;-67
2021/07/07 08:13:44;;;;;;;7.40;6.80;;;;;;;43.32;24.11;100454.03;92743;1217;65711;-67
2021/07/07 08:15:56;;;;;;;7.50;6.80;;;;;;;43.36;22.97;100452.04;92783;1224;68347;-67
2021/07/07 08:18:03;;;;;;;;;;;;;;;42.90;23.20;100448.39;92757;1217;87947;-69
2021/07/07 08:20:14;;;;;;;7.70;7.00;;;;;;;43.15;23.48;100451.23;92705;1217;74857;-62
2021/07/07 08:22:22;;;;;;;7.40;6.80;;;;;;;43.16;23.36;100450.00;92746;1217;81223;-61
2021/07/07 08:24:30;;;;;;;7.60;7.10;;;;;;;43.27;23.94;100453.64;92753;1217;67152;-66
2021/07/07 08:26:37;;;;;;;7.40;6.80;;;;;;;43.06;23.08;100453.67;92727;1217;69637;-60
2021/07/07 08:28:48;;;;;;;7.40;6.80;;;;;;;43.00;23.57;100458.14;92739;1217;87605;-60
2021/07/07 08:30:57;;;;;;;8.10;7.40;;;;;;;42.94;23.45;100460.58;92728;1217;73965;-67
2021/07/07 08:33:05;;;;;;;7.80;7.10;;;;;;;42.50;23.18;100457.27;92753;1217;82071;-67
2021/07/07 08:35:14;;;;;;;7.10;6.50;;;;;;;42.31;23.42;100456.41;92759;1217;65476;-62
2021/07/07 08:37:22;;;;;;;7.60;7.00;;;;;;;42.23;23.29;100454.77;92760;1222;69679;-62
2021/07/07 08:39:31;;;;;;;7.30;6.70;;;;;;;42.54;23.44;100461.77;92754;1211;87675;-63
2021/07/07 08:41:41;;;;;;;7.40;6.70;;;;;;;42.24;23.59;100456.41;92740;1217;75738;-68
2021/07/07 08:43:49;;;;;;;7.30;6.70;;;;;;;42.08;22.38;100472.14;92745;1217;81306;-67
2021/07/07 08:46:00;;;;;;;7.10;6.60;;;;;;;42.23;23.47;100466.13;92712;1217;66921;-67
2021/07/07 08:48:08;;;;;;;7.30;6.80;;;;;;;42.38;23.47;100460.48;92773;1212;68147;-69
2021/07/07 08:50:20;;;;;;;7.40;6.70;;;;;;;41.67;23.04;100465.86;92743;1217;89052;-59
2021/07/07 08:52:28;;;;;;;7.80;7.20;;;;;;;41.69;23.36;100458.57;92760;1221;74522;-60
2021/07/07 08:54:36;;;;;;;7.30;6.70;;;;;;;41.60;23.63;100460.95;92736;1221;81390;-62
2021/07/07 08:56:43;;;;;;;7.30;6.80;;;;;;;41.66;23.42;100469.89;92745;1222;65484;-60
2021/07/07 08:58:52;;;;;;;7.20;6.60;;;;;;;41.93;24.35;100457.08;92746;1224;69945;-60
2021/07/07 09:01:02;;;;;;;6.50;5.90;;;;;;;41.96;23.98;100466.81;92708;1217;87112;-70
2021/07/07 09:03:15;;;;;;;8.60;7.40;;;;;;;41.85;23.76;100465.95;92768;1224;75377;-69
2021/07/07 09:05:24;;;;;;;7.50;6.90;;;;;;;41.51;24.72;100463.32;92765;1222;80092;-67
2021/07/07 09:07:40;;;;;;;7.60;7.00;;;;;;;41.59;23.79;100462.15;92738;1217;66310;-69
2021/07/07 09:09:49;;;;;;;8.00;6.90;;;;;;;41.29;23.92;100461.53;92725;1217;69062;-61
2021/07/07 09:12:00;;;;;;;7.70;7.00;;;;;;;40.95;24.32;100457.24;92802;1217;87238;-60
2021/07/07 09:14:14;;;;;;;7.10;6.60;;;;;;;40.77;24.50;100478.92;92792;1209;74707;-62
2021/07/07 09:16:23;;;;;;;7.20;6.60;;;;;;;40.38;24.39;100470.01;92737;1217;82035;-59
2021/07/07 09:18:37;;;;;;;7.10;6.60;;;;;;;40.11;25.32;100474.16;92711;1217;65577;-60
2021/07/07 09:20:45;;;;;;;7.30;6.70;;;;;;;39.51;25.23;100476.92;92798;1215;67872;-63
2021/07/07 09:23:18;;;;;;;7.50;6.80;;;;;;;39.33;25.51;100487.17;92744;1217;87108;-62
2021/07/07 09:25:32;;;;;;;7.70;7.00;;;;;;;39.03;25.82;100475.77;92795;1217;75252;-66
2021/07/07 09:27:41;;;;;;;7.70;7.00;;;;;;;38.46;27.04;100476.72;92780;1217;81036;-72
2021/07/07 09:29:53;;;;;;;7.60;6.90;;;;;;;37.93;26.39;100477.65;92705;1217;65978;-70
2021/07/07 09:32:10;;;;;;;7.70;7.00;;;;;;;37.45;26.85;100482.60;92750;1215;67817;-67
2021/07/07 09:34:22;;;;;;;8.70;7.30;;;;;;;37.12;27.27;100476.53;92742;1217;87485;-66
2021/07/07 09:36:28;;;;;;;;;;;;;;;37.02;28.62;100477.11;92830;1217;73791;-62
2021/07/07 09:38:42;;;;;;;8.70;6.10;;;;;;;37.05;28.38;100476.38;92712;1223;81735;-62
2021/07/07 09:40:50;;;;;;;7.30;6.60;;;;;;;36.59;27.97;100478.78;92696;1217;66004;-62
2021/07/07 09:42:58;;;;;;;6.20;5.70;;;;;;;36.42;28.38;100472.66;92723;1224;67982;-62
2021/07/07 09:45:09;;;;;;;7.90;6.50;;;;;;;36.36;28.86;100483.36;92777;1217;88919;-60
2021/07/07 09:47:18;;;;;;;7.30;6.70;;;;;;;36.27;29.09;100484.69;92773;1217;75151;-60
2021/07/07 09:49:29;;;;;;;7.80;7.10;;;;;;;36.31;29.58;100480.81;92710;1224;82076;-62
2021/07/07 09:51:37;;;;;;;7.20;6.60;;;;;;;36.26;28.99;100472.61;92708;1217;67627;-63
2021/07/07 09:53:45;;;;;;;8.00;6.60;;;;;;;36.06;29.16;100474.48;92735;1217;68390;-62